Time;durP1;ratioP1;P1;durP2;ratioP2;P2;SDS_P1;SDS_P2;PMS_P1;PMS_P2;Temp;Humidity;BMP_temperature;BMP_pressure;BME280_temperature;BME280_humidity;BME280_pressure;Samples;Min_cycle;Max_cycle;Signal;HPM_P1;HPM_P2
2022/03/09 00:00:39;;;;;;;5.10;3.40;;;;;;;;;;5097174;28;20171;-61
2022/03/09 00:03:05;;;;;;;7.00;3.47;;;;;;;;;;5097561;28;20246;-61
2022/03/09 00:05:31;;;;;;;5.60;3.33;;;;;;;;;;5097688;28;20190;-62
2022/03/09 00:07:57;;;;;;;4.95;3.35;;;;;;;;;;5097651;28;20171;-61
2022/03/09 00:10:23;;;;;;;5.30;3.50;;;;;;;;;;5097711;28;20248;-61
2022/03/09 00:12:49;;;;;;;7.07;3.75;;;;;;;;;;5097797;28;20503;-62
2022/03/09 00:15:15;;;;;;;5.55;3.20;;;;;;;;;;5097492;28;20610;-62
2022/03/09 00:17:41;;;;;;;5.13;3.35;;;;;;;;;;5097603;28;20178;-62
2022/03/09 00:20:07;;;;;;;6.78;3.47;;;;;;;;;;5096398;28;20185;-62
2022/03/09 00:22:33;;;;;;;6.47;3.40;;;;;;;;;;5097743;28;20171;-59
2022/03/09 00:24:59;;;;;;;4.65;3.45;;;;;;;;;;5096607;28;20174;-61
2022/03/09 00:27:25;;;;;;;6.63;3.40;;;;;;;;;;5096809;28;20163;-61
2022/03/09 00:29:51;;;;;;;6.70;3.78;;;;;;;;;;5096679;28;20551;-61
2022/03/09 00:32:17;;;;;;;6.50;3.40;;;;;;;;;;5096731;28;20160;-61
2022/03/09 00:34:43;;;;;;;5.70;3.72;;;;;;;;;;5096305;28;20163;-61
2022/03/09 00:37:09;;;;;;;6.20;3.33;;;;;;;;;;5096439;28;20209;-61
2022/03/09 00:39:34;;;;;;;5.40;3.70;;;;;;;;;;5096601;28;20175;-61
2022/03/09 00:42:00;;;;;;;4.53;2.90;;;;;;;;;;5097035;28;20220;-61
2022/03/09 00:44:26;;;;;;;4.53;3.35;;;;;;;;;;5096829;28;20176;-61
2022/03/09 00:46:52;;;;;;;7.32;4.07;;;;;;;;;;5096951;28;20170;-62
2022/03/09 00:49:18;;;;;;;8.43;3.67;;;;;;;;;;5096332;28;20195;-62
2022/03/09 00:51:44;;;;;;;5.20;3.70;;;;;;;;;;5097098;28;20622;-61
2022/03/09 00:54:10;;;;;;;6.38;3.88;;;;;;;;;;5096475;28;20181;-62
2022/03/09 00:56:36;;;;;;;6.53;3.45;;;;;;;;;;5096859;28;20172;-61
2022/03/09 00:59:02;;;;;;;7.22;4.00;;;;;;;;;;5096404;28;20156;-61
2022/03/09 01:01:28;;;;;;;8.85;3.78;;;;;;;;;;5096124;28;20545;-62
2022/03/09 01:03:54;;;;;;;7.07;4.03;;;;;;;;;;5096453;28;20167;-62
2022/03/09 01:06:19;;;;;;;6.22;4.10;;;;;;;;;;5096280;28;20170;-61
2022/03/09 01:08:45;;;;;;;6.88;4.20;;;;;;;;;;5096409;28;20575;-61
2022/03/09 01:11:11;;;;;;;8.10;5.05;;;;;;;;;;5096056;28;20223;-61
2022/03/09 01:13:37;;;;;;;7.88;4.80;;;;;;;;;;5096258;28;20173;-61
2022/03/09 01:16:03;;;;;;;7.95;4.70;;;;;;;;;;5096257;28;20164;-61
2022/03/09 01:18:29;;;;;;;7.45;5.32;;;;;;;;;;5096113;28;20160;-62
2022/03/09 01:20:55;;;;;;;9.02;5.35;;;;;;;;;;5095873;28;20537;-62
2022/03/09 01:23:22;;;;;;;11.68;6.28;;;;;;;;;;5095863;28;20168;-61
2022/03/09 01:25:48;;;;;;;7.10;5.25;;;;;;;;;;5096111;28;20167;-61
2022/03/09 01:28:14;;;;;;;7.70;4.75;;;;;;;;;;5095904;28;20509;-61
2022/03/09 01:30:40;;;;;;;11.40;5.63;;;;;;;;;;5095597;28;20191;-61
2022/03/09 01:33:06;;;;;;;9.07;6.07;;;;;;;;;;5095718;28;20160;-61
2022/03/09 01:35:32;;;;;;;10.23;6.38;;;;;;;;;;5095696;28;20591;-61
2022/03/09 01:37:58;;;;;;;9.65;6.28;;;;;;;;;;5095535;28;20189;-60
2022/03/09 01:40:24;;;;;;;10.60;6.22;;;;;;;;;;5095179;28;20496;-61
2022/03/09 01:42:50;;;;;;;10.38;5.55;;;;;;;;;;5095657;28;20167;-62
2022/03/09 01:45:16;;;;;;;7.82;5.22;;;;;;;;;;5095442;28;20591;-62
2022/03/09 01:47:42;;;;;;;10.52;5.78;;;;;;;;;;5094594;28;20175;-62
2022/03/09 01:50:09;;;;;;;6.90;4.93;;;;;;;;;;5094777;28;20196;-62
2022/03/09 01:52:35;;;;;;;7.43;4.68;;;;;;;;;;5095264;28;20175;-61
2022/03/09 01:55:02;;;;;;;8.52;5.47;;;;;;;;;;5094853;28;20159;-60
2022/03/09 01:57:29;;;;;;;8.45;4.88;;;;;;;;;;5094928;28;20164;-62
2022/03/09 01:59:55;;;;;;;8.82;5.45;;;;;;;;;;5094814;28;20215;-61
2022/03/09 02:02:22;;;;;;;7.93;4.60;;;;;;;;;;5095115;28;20180;-62
2022/03/09 02:04:48;;;;;;;7.43;4.90;;;;;;;;;;5094832;28;20583;-61
2022/03/09 02:07:15;;;;;;;6.78;4.45;;;;;;;;;;5094609;28;20173;-62
2022/03/09 02:09:47;;;;;;;8.32;4.97;;;;;;;;;;5094612;28;20197;-62
2022/03/09 02:12:14;;;;;;;6.47;4.75;;;;;;;;;;5094714;28;20152;-62
2022/03/09 02:14:42;;;;;;;10.13;5.35;;;;;;;;;;5094874;28;20164;-62
2022/03/09 02:17:18;;;;;;;8.65;4.13;;;;;;;;;;5095022;28;20171;-62
2022/03/09 02:19:50;;;;;;;7.72;4.35;;;;;;;;;;5094595;28;20220;-60
2022/03/09 02:22:19;;;;;;;6.90;3.92;;;;;;;;;;5094715;28;20166;-60
2022/03/09 02:24:45;;;;;;;7.35;4.10;;;;;;;;;;5094627;28;20178;-62
2022/03/09 02:27:11;;;;;;;5.95;3.80;;;;;;;;;;5094596;28;20167;-61
2022/03/09 02:29:37;;;;;;;6.90;3.85;;;;;;;;;;5094546;28;20222;-60
2022/03/09 02:32:04;;;;;;;6.20;3.13;;;;;;;;;;5094693;28;20168;-62
2022/03/09 02:34:29;;;;;;;5.32;3.45;;;;;;;;;;5094738;28;20163;-61
2022/03/09 02:36:56;;;;;;;6.65;4.25;;;;;;;;;;5094967;28;20179;-61
2022/03/09 02:39:22;;;;;;;6.95;3.75;;;;;;;;;;5100565;28;20163;-62
2022/03/09 02:41:48;;;;;;;5.35;3.55;;;;;;;;;;5100829;28;20168;-61
2022/03/09 02:44:14;;;;;;;4.43;3.03;;;;;;;;;;5101479;28;20225;-61
2022/03/09 02:46:40;;;;;;;5.13;3.20;;;;;;;;;;5101977;28;20163;-61
2022/03/09 02:49:06;;;;;;;6.22;3.70;;;;;;;;;;5104741;28;20171;-60
2022/03/09 02:51:32;;;;;;;5.60;3.28;;;;;;;;;;5106122;28;20189;-61
2022/03/09 02:53:58;;;;;;;6.63;3.58;;;;;;;;;;5106938;28;20160;-62
2022/03/09 02:56:24;;;;;;;7.03;4.63;;;;;;;;;;5105514;28;20156;-61
2022/03/09 02:58:50;;;;;;;8.95;4.68;;;;;;;;;;5107963;28;20164;-61
2022/03/09 03:01:16;;;;;;;8.25;4.32;;;;;;;;;;5111179;28;20622;-61
2022/03/09 03:03:42;;;;;;;7.57;4.18;;;;;;;;;;5111670;28;20178;-61
2022/03/09 03:06:09;;;;;;;6.93;4.00;;;;;;;;;;5110940;28;20241;-61
2022/03/09 03:08:35;;;;;;;5.60;3.95;;;;;;;;;;5111019;28;20183;-61
2022/03/09 03:11:01;;;;;;;7.65;4.22;;;;;;;;;;5100257;28;20242;-61
2022/03/09 03:13:27;;;;;;;7.25;3.55;;;;;;;;;;5093929;28;20304;-59
2022/03/09 03:15:53;;;;;;;6.78;3.72;;;;;;;;;;5093786;28;20214;-61
2022/03/09 03:18:19;;;;;;;7.90;3.92;;;;;;;;;;5093697;28;20421;-60
2022/03/09 03:20:45;;;;;;;7.30;4.15;;;;;;;;;;5093794;28;20175;-61
2022/03/09 03:23:11;;;;;;;6.47;4.20;;;;;;;;;;5093663;28;20183;-60
2022/03/09 03:25:37;;;;;;;5.40;3.28;;;;;;;;;;5093825;28;20172;-61
2022/03/09 03:28:03;;;;;;;6.43;3.78;;;;;;;;;;5094061;28;20266;-59
2022/03/09 03:30:29;;;;;;;5.13;3.63;;;;;;;;;;5093861;28;20632;-62
2022/03/09 03:32:55;;;;;;;7.57;4.05;;;;;;;;;;5093759;28;20196;-62
2022/03/09 03:35:21;;;;;;;7.55;3.92;;;;;;;;;;5093686;28;20166;-62
2022/03/09 03:37:47;;;;;;;5.93;3.58;;;;;;;;;;5093899;28;20164;-62
2022/03/09 03:40:13;;;;;;;8.57;3.92;;;;;;;;;;5094147;28;20543;-62
2022/03/09 03:42:39;;;;;;;5.95;3.90;;;;;;;;;;5093533;28;20160;-62
2022/03/09 03:45:06;;;;;;;5.88;3.65;;;;;;;;;;5093377;28;20163;-61
2022/03/09 03:47:31;;;;;;;3.92;2.90;;;;;;;;;;5093431;28;20171;-62
2022/03/09 03:49:57;;;;;;;10.73;3.92;;;;;;;;;;5093338;28;20195;-60
2022/03/09 03:52:23;;;;;;;6.13;3.33;;;;;;;;;;5093280;28;20236;-61
2022/03/09 03:54:49;;;;;;;5.18;3.03;;;;;;;;;;5093402;28;20164;-61
2022/03/09 03:57:15;;;;;;;6.82;3.40;;;;;;;;;;5093198;28;20167;-61
2022/03/09 03:59:41;;;;;;;5.47;3.35;;;;;;;;;;5092966;28;20717;-61
2022/03/09 04:02:07;;;;;;;5.72;3.42;;;;;;;;;;5093214;28;20160;-61
2022/03/09 04:04:33;;;;;;;6.35;3.70;;;;;;;;;;5093176;28;20164;-61
2022/03/09 04:06:59;;;;;;;5.68;3.00;;;;;;;;;;5093166;28;20270;-62
2022/03/09 04:09:25;;;;;;;5.22;3.22;;;;;;;;;;5093641;28;20183;-62
2022/03/09 04:11:50;;;;;;;7.65;3.45;;;;;;;;;;5096737;28;20181;-61
2022/03/09 04:14:19;;;;;;;5.78;3.58;;;;;;;;;;5097298;28;20159;-61
2022/03/09 04:16:47;;;;;;;5.05;3.40;;;;;;;;;;5096902;28;20191;-61
2022/03/09 04:19:13;;;;;;;9.02;3.88;;;;;;;;;;5096805;28;20167;-61
2022/03/09 04:21:39;;;;;;;8.60;3.78;;;;;;;;;;5095430;28;20178;-61
2022/03/09 04:24:05;;;;;;;5.32;3.30;;;;;;;;;;5096521;28;20246;-61
2022/03/09 04:26:31;;;;;;;6.65;3.70;;;;;;;;;;5096385;28;20527;-62
2022/03/09 04:28:57;;;;;;;7.00;4.07;;;;;;;;;;5096537;28;20178;-61
2022/03/09 04:31:23;;;;;;;6.07;4.38;;;;;;;;;;5096453;28;20191;-61
2022/03/09 04:33:49;;;;;;;5.90;3.83;;;;;;;;;;5096561;28;20255;-62
2022/03/09 04:36:15;;;;;;;8.45;4.70;;;;;;;;;;5096295;28;20251;-61
2022/03/09 04:38:41;;;;;;;7.65;4.28;;;;;;;;;;5096216;28;20628;-61
2022/03/09 04:41:07;;;;;;;7.40;4.13;;;;;;;;;;5096537;28;20175;-60
2022/03/09 04:43:33;;;;;;;6.65;4.28;;;;;;;;;;5096228;28;20199;-61
2022/03/09 04:45:59;;;;;;;8.70;4.80;;;;;;;;;;5096544;28;20197;-62
2022/03/09 04:48:25;;;;;;;8.85;4.35;;;;;;;;;;5096049;28;20163;-61
2022/03/09 04:50:51;;;;;;;9.80;4.50;;;;;;;;;;5096373;28;20214;-60
2022/03/09 04:53:17;;;;;;;7.07;4.35;;;;;;;;;;5095883;28;20160;-60
2022/03/09 04:55:43;;;;;;;9.40;4.70;;;;;;;;;;5096191;28;20170;-61
2022/03/09 04:58:09;;;;;;;7.97;4.22;;;;;;;;;;5096365;28;20217;-61
2022/03/09 05:00:35;;;;;;;6.57;4.03;;;;;;;;;;5095658;28;20179;-61
2022/03/09 05:03:01;;;;;;;7.22;4.15;;;;;;;;;;5095585;28;20178;-61
2022/03/09 05:05:26;;;;;;;8.73;4.22;;;;;;;;;;5094625;28;20191;-62
2022/03/09 05:07:52;;;;;;;6.45;4.35;;;;;;;;;;5095983;28;20187;-62
2022/03/09 05:10:19;;;;;;;8.05;4.25;;;;;;;;;;5095738;28;20198;-62
2022/03/09 05:12:45;;;;;;;6.85;4.40;;;;;;;;;;5096013;28;20171;-62
2022/03/09 05:15:11;;;;;;;6.40;4.13;;;;;;;;;;5095893;28;20568;-61
2022/03/09 05:17:40;;;;;;;7.95;4.43;;;;;;;;;;5095419;28;20487;-61
2022/03/09 05:20:06;;;;;;;6.32;3.75;;;;;;;;;;5095497;28;20254;-61
2022/03/09 05:22:32;;;;;;;7.68;4.20;;;;;;;;;;5095346;28;20247;-61
2022/03/09 05:24:58;;;;;;;8.77;4.75;;;;;;;;;;5095771;28;20313;-61
2022/03/09 05:27:27;;;;;;;8.70;4.43;;;;;;;;;;5095413;28;20194;-65
2022/03/09 05:29:54;;;;;;;7.47;4.25;;;;;;;;;;5096138;28;20187;-64
2022/03/09 05:32:20;;;;;;;5.95;3.97;;;;;;;;;;5096164;28;20155;-64
2022/03/09 05:34:49;;;;;;;7.35;4.18;;;;;;;;;;5095580;28;20163;-64
2022/03/09 05:37:15;;;;;;;9.38;5.05;;;;;;;;;;5095630;28;20250;-64
2022/03/09 05:39:41;;;;;;;9.60;4.40;;;;;;;;;;5095541;28;20579;-64
2022/03/09 05:42:07;;;;;;;9.57;4.35;;;;;;;;;;5095223;28;20167;-64
2022/03/09 05:44:33;;;;;;;7.90;4.30;;;;;;;;;;5095374;28;20171;-64
2022/03/09 05:46:59;;;;;;;9.35;4.63;;;;;;;;;;5095550;28;20168;-63
2022/03/09 05:49:25;;;;;;;7.03;3.83;;;;;;;;;;5095320;28;20171;-63
2022/03/09 05:51:52;;;;;;;8.15;4.15;;;;;;;;;;5095392;28;20198;-65
2022/03/09 05:54:18;;;;;;;9.05;4.45;;;;;;;;;;5095035;28;20599;-65
2022/03/09 05:56:44;;;;;;;6.38;3.60;;;;;;;;;;5094828;28;20163;-65
2022/03/09 05:59:11;;;;;;;7.07;4.20;;;;;;;;;;5094637;28;20171;-65
2022/03/09 06:01:37;;;;;;;8.68;3.88;;;;;;;;;;5095041;28;20576;-64
2022/03/09 06:04:03;;;;;;;9.00;5.05;;;;;;;;;;5094942;28;20168;-64
2022/03/09 06:06:29;;;;;;;7.07;4.22;;;;;;;;;;5094563;28;20171;-64
2022/03/09 06:08:55;;;;;;;5.82;3.55;;;;;;;;;;5094681;28;20164;-64
2022/03/09 06:11:21;;;;;;;9.93;4.00;;;;;;;;;;5094486;28;20217;-65
2022/03/09 06:13:47;;;;;;;15.20;4.63;;;;;;;;;;5094510;28;20546;-64
2022/03/09 06:16:13;;;;;;;6.20;4.20;;;;;;;;;;5094512;28;20156;-64
2022/03/09 06:18:39;;;;;;;7.05;4.38;;;;;;;;;;5094363;28;20601;-65
2022/03/09 06:21:05;;;;;;;7.20;4.30;;;;;;;;;;5094481;28;20185;-65
2022/03/09 06:23:31;;;;;;;9.77;4.82;;;;;;;;;;5094479;28;20167;-64
2022/03/09 06:25:57;;;;;;;5.68;4.00;;;;;;;;;;5094556;28;20205;-64
2022/03/09 06:28:23;;;;;;;7.60;4.50;;;;;;;;;;5094756;28;20167;-65
2022/03/09 06:30:49;;;;;;;10.05;4.90;;;;;;;;;;5094388;28;20259;-64
2022/03/09 06:33:15;;;;;;;8.50;4.53;;;;;;;;;;5094408;28;20255;-64
2022/03/09 06:35:41;;;;;;;8.27;4.85;;;;;;;;;;5095444;28;20160;-63
2022/03/09 06:38:07;;;;;;;9.43;5.10;;;;;;;;;;5094732;28;20607;-63
2022/03/09 06:40:33;;;;;;;7.47;4.60;;;;;;;;;;5102227;28;20167;-65
2022/03/09 06:43:00;;;;;;;9.38;5.05;;;;;;;;;;5106594;28;20183;-65
2022/03/09 06:45:27;;;;;;;6.57;4.68;;;;;;;;;;5103527;28;20175;-65
2022/03/09 06:47:53;;;;;;;6.93;4.65;;;;;;;;;;5107044;28;20429;-65
2022/03/09 06:50:19;;;;;;;7.22;4.45;;;;;;;;;;5106803;28;20205;-64
2022/03/09 06:52:44;;;;;;;8.65;5.03;;;;;;;;;;5110134;28;20160;-64
2022/03/09 06:55:12;;;;;;;10.60;4.40;;;;;;;;;;5107366;28;20163;-65
2022/03/09 06:57:38;;;;;;;11.85;4.93;;;;;;;;;;5108450;28;20242;-65
2022/03/09 07:00:05;;;;;;;8.75;4.68;;;;;;;;;;5107104;28;20175;-65
2022/03/09 07:02:31;;;;;;;6.35;4.07;;;;;;;;;;5110109;28;20162;-64
2022/03/09 07:04:57;;;;;;;6.70;4.82;;;;;;;;;;5113005;28;20155;-65
2022/03/09 07:07:23;;;;;;;7.32;5.10;;;;;;;;;;5110428;28;20174;-65
2022/03/09 07:09:49;;;;;;;8.98;5.28;;;;;;;;;;5110528;28;20187;-64
2022/03/09 07:12:15;;;;;;;9.25;5.35;;;;;;;;;;5110033;28;20175;-64
2022/03/09 07:14:40;;;;;;;8.02;4.78;;;;;;;;;;5103859;28;20174;-65
2022/03/09 07:17:06;;;;;;;10.73;4.80;;;;;;;;;;5093524;28;20182;-62
2022/03/09 07:19:32;;;;;;;12.48;5.63;;;;;;;;;;5093501;28;20164;-64
2022/03/09 07:21:58;;;;;;;19.67;6.80;;;;;;;;;;5093632;28;20164;-65
2022/03/09 07:24:24;;;;;;;13.95;6.70;;;;;;;;;;5093515;28;20201;-64
2022/03/09 07:26:50;;;;;;;14.90;5.88;;;;;;;;;;5093443;28;20171;-64
2022/03/09 07:29:17;;;;;;;13.32;6.07;;;;;;;;;;5093338;28;20231;-64
2022/03/09 07:31:43;;;;;;;13.57;5.97;;;;;;;;;;5093816;28;20168;-64
2022/03/09 07:34:09;;;;;;;11.68;6.07;;;;;;;;;;5093353;28;20499;-64
2022/03/09 07:36:35;;;;;;;10.13;5.35;;;;;;;;;;5093479;28;20172;-64
2022/03/09 07:39:01;;;;;;;13.07;6.15;;;;;;;;;;5093308;28;20275;-64
2022/03/09 07:41:27;;;;;;;17.63;7.22;;;;;;;;;;5093634;28;20164;-64
2022/03/09 07:43:53;;;;;;;14.93;6.28;;;;;;;;;;5093634;28;20313;-64
2022/03/09 07:46:18;;;;;;;15.32;6.93;;;;;;;;;;5096739;28;20473;-64
2022/03/09 07:48:45;;;;;;;12.73;6.45;;;;;;;;;;5097063;28;20631;-64
2022/03/09 07:51:11;;;;;;;17.17;6.95;;;;;;;;;;5097448;28;20203;-64
2022/03/09 07:53:42;;;;;;;19.27;7.00;;;;;;;;;;5097013;28;20159;-64
2022/03/09 07:56:08;;;;;;;17.33;7.05;;;;;;;;;;5097189;28;20148;-63
2022/03/09 07:58:34;;;;;;;15.57;7.45;;;;;;;;;;5097108;28;20280;-63
2022/03/09 08:01:00;;;;;;;16.83;7.18;;;;;;;;;;5096804;28;20179;-64
2022/03/09 08:03:26;;;;;;;14.82;6.70;;;;;;;;;;5096978;28;20167;-64
2022/03/09 08:05:52;;;;;;;9.90;6.22;;;;;;;;;;5097203;28;20191;-65
2022/03/09 08:08:18;;;;;;;10.82;6.93;;;;;;;;;;5097231;28;20532;-65
2022/03/09 08:10:44;;;;;;;15.57;6.95;;;;;;;;;;5096579;28;20611;-65
2022/03/09 08:13:09;;;;;;;10.75;6.07;;;;;;;;;;5096818;28;20179;-65
2022/03/09 08:15:37;;;;;;;10.00;6.63;;;;;;;;;;5096515;28;20168;-65
2022/03/09 08:18:03;;;;;;;11.32;6.47;;;;;;;;;;5096899;28;20450;-64
2022/03/09 08:20:29;;;;;;;8.63;6.38;;;;;;;;;;5096575;28;20666;-65
2022/03/09 08:22:55;;;;;;;10.75;6.80;;;;;;;;;;5096771;28;20277;-65
2022/03/09 08:25:21;;;;;;;12.55;6.00;;;;;;;;;;5096455;28;20488;-65
2022/03/09 08:27:47;;;;;;;9.35;6.13;;;;;;;;;;5096726;28;20164;-64
2022/03/09 08:30:13;;;;;;;11.23;6.45;;;;;;;;;;5096617;28;20191;-65
2022/03/09 08:32:39;;;;;;;11.52;6.45;;;;;;;;;;5096129;28;20164;-65
2022/03/09 08:35:05;;;;;;;7.55;5.72;;;;;;;;;;5096120;28;20164;-65
2022/03/09 08:37:31;;;;;;;11.88;5.57;;;;;;;;;;5096499;28;20163;-64
2022/03/09 08:39:57;;;;;;;9.32;5.63;;;;;;;;;;5096399;28;20164;-64
2022/03/09 08:42:23;;;;;;;6.93;5.07;;;;;;;;;;5096447;28;20159;-65
2022/03/09 08:44:50;;;;;;;7.72;4.82;;;;;;;;;;5094915;28;20664;-65
2022/03/09 08:47:16;;;;;;;7.25;4.20;;;;;;;;;;5096209;28;20545;-64
2022/03/09 08:49:42;;;;;;;6.82;4.65;;;;;;;;;;5095125;28;20191;-64
2022/03/09 08:52:09;;;;;;;7.35;4.75;;;;;;;;;;5096046;28;20167;-64
2022/03/09 08:54:35;;;;;;;7.68;4.80;;;;;;;;;;5095740;28;20163;-64
2022/03/09 08:57:01;;;;;;;12.00;5.53;;;;;;;;;;5095724;28;20671;-64
2022/03/09 08:59:27;;;;;;;8.40;5.25;;;;;;;;;;5095684;28;20244;-63
2022/03/09 09:01:53;;;;;;;9.60;5.30;;;;;;;;;;5095705;28;20556;-64
2022/03/09 09:04:18;;;;;;;7.80;4.55;;;;;;;;;;5096060;28;20160;-64
2022/03/09 09:06:44;;;;;;;8.60;4.97;;;;;;;;;;5095746;28;20606;-64
2022/03/09 09:09:10;;;;;;;9.27;5.55;;;;;;;;;;5096344;28;20171;-64
2022/03/09 09:11:38;;;;;;;8.55;5.53;;;;;;;;;;5096073;28;20258;-64
2022/03/09 09:14:03;;;;;;;7.60;5.47;;;;;;;;;;5100929;28;20163;-65
2022/03/09 09:16:29;;;;;;;10.93;6.43;;;;;;;;;;5101248;28;20175;-64
2022/03/09 09:18:55;;;;;;;8.75;6.65;;;;;;;;;;5096022;28;20159;-64
2022/03/09 09:21:23;;;;;;;9.68;6.25;;;;;;;;;;5095506;28;20648;-64
2022/03/09 09:23:49;;;;;;;9.68;5.80;;;;;;;;;;5095723;28;20171;-64
2022/03/09 09:26:15;;;;;;;12.93;6.07;;;;;;;;;;5095515;28;20507;-64
2022/03/09 09:28:41;;;;;;;9.43;5.75;;;;;;;;;;5095374;28;20178;-64
2022/03/09 09:31:07;;;;;;;6.60;4.95;;;;;;;;;;5095146;28;20195;-64
2022/03/09 09:33:33;;;;;;;10.85;5.78;;;;;;;;;;5095238;28;20734;-65
2022/03/09 09:35:59;;;;;;;8.85;5.60;;;;;;;;;;5095158;28;20595;-64
2022/03/09 09:38:25;;;;;;;11.07;6.25;;;;;;;;;;5095021;28;20167;-65
2022/03/09 09:40:53;;;;;;;12.85;6.60;;;;;;;;;;5095178;28;20174;-65
2022/03/09 09:43:19;;;;;;;8.20;5.57;;;;;;;;;;5094810;28;20575;-65
2022/03/09 09:45:45;;;;;;;12.13;5.70;;;;;;;;;;5095030;28;20633;-65
2022/03/09 09:48:12;;;;;;;8.35;5.78;;;;;;;;;;5094909;28;20630;-64
2022/03/09 09:50:38;;;;;;;12.75;5.68;;;;;;;;;;5094603;28;20191;-64
2022/03/09 09:53:06;;;;;;;8.75;5.30;;;;;;;;;;5095030;28;20175;-64
2022/03/09 09:55:32;;;;;;;7.53;5.60;;;;;;;;;;5094658;28;20167;-64
2022/03/09 09:57:59;;;;;;;9.38;5.30;;;;;;;;;;5094684;28;20681;-64
2022/03/09 10:00:25;;;;;;;9.45;5.18;;;;;;;;;;5094270;28;20682;-64
2022/03/09 10:02:51;;;;;;;4.82;3.60;;;;;;;;;;5094762;28;20252;-64
2022/03/09 10:05:18;;;;;;;6.43;3.53;;;;;;;;;;5094909;28;20236;-65
2022/03/09 10:08:03;;;;;;;4.82;3.00;;;;;;;;;;5094028;28;20171;-65
2022/03/09 10:10:29;;;;;;;6.35;3.85;;;;;;;;;;5094311;28;20201;-65
2022/03/09 10:13:10;;;;;;;6.18;4.15;;;;;;;;;;5094573;28;20171;-65
2022/03/09 10:15:36;;;;;;;5.07;3.70;;;;;;;;;;5094462;28;20169;-64
2022/03/09 10:18:22;;;;;;;5.63;3.72;;;;;;;;;;5094725;28;20659;-64
2022/03/09 10:20:50;;;;;;;5.03;3.53;;;;;;;;;;5094563;28;20167;-64
2022/03/09 10:23:21;;;;;;;5.45;2.97;;;;;;;;;;5094348;28;20254;-64
2022/03/09 10:25:48;;;;;;;6.50;4.03;;;;;;;;;;5094433;28;20181;-65
2022/03/09 10:28:14;;;;;;;5.30;3.35;;;;;;;;;;5094262;28;20164;-64
2022/03/09 10:30:41;;;;;;;5.55;3.70;;;;;;;;;;5094649;28;20226;-64
2022/03/09 10:33:09;;;;;;;6.90;4.13;;;;;;;;;;5093944;28;20190;-65
2022/03/09 10:35:35;;;;;;;6.38;4.22;;;;;;;;;;5093976;28;20160;-65
2022/03/09 10:38:01;;;;;;;7.40;4.18;;;;;;;;;;5093770;28;20228;-65
2022/03/09 10:40:29;;;;;;;8.45;3.95;;;;;;;;;;5094447;28;20614;-65
2022/03/09 10:43:14;;;;;;;8.15;3.88;;;;;;;;;;5093912;28;20175;-64
2022/03/09 10:45:59;;;;;;;5.03;3.05;;;;;;;;;;5094426;28;20241;-65
2022/03/09 10:48:45;;;;;;;5.63;3.67;;;;;;;;;;5094408;28;20195;-65
2022/03/09 10:51:11;;;;;;;5.97;3.78;;;;;;;;;;5093894;28;20277;-65
2022/03/09 10:53:46;;;;;;;6.82;3.35;;;;;;;;;;5094452;28;20178;-65
2022/03/09 10:56:19;;;;;;;5.63;3.72;;;;;;;;;;5093553;28;20248;-65
2022/03/09 10:58:45;;;;;;;4.60;3.42;;;;;;;;;;5094015;28;20159;-65
2022/03/09 11:01:15;;;;;;;4.68;3.45;;;;;;;;;;5093565;28;20523;-65
2022/03/09 11:03:43;;;;;;;6.05;3.55;;;;;;;;;;5093591;28;20183;-65
2022/03/09 11:06:09;;;;;;;5.95;3.40;;;;;;;;;;5093663;28;20203;-65
2022/03/09 11:08:36;;;;;;;6.15;3.63;;;;;;;;;;5093646;28;20199;-65
2022/03/09 11:11:02;;;;;;;5.78;3.25;;;;;;;;;;5093741;28;20190;-65
2022/03/09 11:13:29;;;;;;;5.18;3.13;;;;;;;;;;5093608;28;20160;-65
2022/03/09 11:15:56;;;;;;;4.97;3.17;;;;;;;;;;5093508;28;20206;-65
2022/03/09 11:18:24;;;;;;;5.35;3.40;;;;;;;;;;5093685;28;20163;-64
2022/03/09 11:20:52;;;;;;;5.82;3.53;;;;;;;;;;5097922;28;20171;-65
2022/03/09 11:23:19;;;;;;;5.25;3.33;;;;;;;;;;5097624;28;20621;-65
2022/03/09 11:25:59;;;;;;;5.85;3.78;;;;;;;;;;5097535;28;20563;-65
2022/03/09 11:28:34;;;;;;;4.97;3.47;;;;;;;;;;5097594;28;20171;-65
2022/03/09 11:31:02;;;;;;;4.10;2.97;;;;;;;;;;5096494;28;20711;-65
2022/03/09 11:33:39;;;;;;;5.45;3.22;;;;;;;;;;5097378;28;20623;-65
2022/03/09 11:36:21;;;;;;;3.10;2.70;;;;;;;;;;5097684;28;20480;-64
2022/03/09 11:38:48;;;;;;;6.47;3.10;;;;;;;;;;5096625;28;20670;-65
2022/03/09 11:41:21;;;;;;;5.72;3.00;;;;;;;;;;5097484;28;20237;-64
2022/03/09 11:43:48;;;;;;;4.40;3.13;;;;;;;;;;5097432;28;20179;-64
2022/03/09 11:46:13;;;;;;;4.22;2.90;;;;;;;;;;5096363;28;20193;-64
2022/03/09 11:48:53;;;;;;;4.70;3.03;;;;;;;;;;5097378;28;20163;-65
2022/03/09 11:51:20;;;;;;;7.38;3.00;;;;;;;;;;5097049;28;20526;-65
2022/03/09 11:53:47;;;;;;;5.18;3.22;;;;;;;;;;5096915;28;20167;-65
2022/03/09 11:56:28;;;;;;;5.75;3.05;;;;;;;;;;5097313;28;20163;-65
2022/03/09 11:59:10;;;;;;;5.32;2.95;;;;;;;;;;5103835;28;20695;-65
2022/03/09 12:01:54;;;;;;;3.72;2.65;;;;;;;;;;5096713;28;20266;-65
2022/03/09 12:04:39;;;;;;;5.55;3.20;;;;;;;;;;5096887;28;20270;-65
2022/03/09 12:07:05;;;;;;;3.78;3.03;;;;;;;;;;5096857;28;20229;-65
2022/03/09 12:09:49;;;;;;;5.57;3.47;;;;;;;;;;5096730;28;20175;-65
2022/03/09 12:12:15;;;;;;;4.53;3.30;;;;;;;;;;5096609;28;20225;-65
2022/03/09 12:15:00;;;;;;;5.05;3.28;;;;;;;;;;5096926;28;20164;-63
2022/03/09 12:17:34;;;;;;;6.97;3.25;;;;;;;;;;5096901;28;20171;-64
2022/03/09 12:20:19;;;;;;;4.18;3.33;;;;;;;;;;5096467;28;20160;-66
2022/03/09 12:22:57;;;;;;;5.05;3.40;;;;;;;;;;5096904;28;20167;-65
2022/03/09 12:25:41;;;;;;;5.00;3.17;;;;;;;;;;5096678;28;20183;-66
2022/03/09 12:28:23;;;;;;;4.43;2.65;;;;;;;;;;5096256;28;20156;-65
2022/03/09 12:30:51;;;;;;;6.07;3.67;;;;;;;;;;5095765;28;20202;-65
2022/03/09 12:33:22;;;;;;;5.53;3.95;;;;;;;;;;5096634;28;20595;-65
2022/03/09 12:35:48;;;;;;;5.82;4.10;;;;;;;;;;5096111;28;20254;-65
2022/03/09 12:38:14;;;;;;;5.40;3.40;;;;;;;;;;5095096;28;20301;-65
2022/03/09 12:40:40;;;;;;;4.72;3.50;;;;;;;;;;5096215;28;20618;-65
2022/03/09 12:43:06;;;;;;;5.82;3.63;;;;;;;;;;5096152;28;20164;-65
2022/03/09 12:45:51;;;;;;;7.00;4.00;;;;;;;;;;5096022;28;20163;-65
2022/03/09 12:48:18;;;;;;;6.80;4.05;;;;;;;;;;5096527;28;20171;-65
2022/03/09 12:50:44;;;;;;;6.88;3.95;;;;;;;;;;5096230;28;20635;-65
2022/03/09 12:53:10;;;;;;;7.60;3.92;;;;;;;;;;5095983;28;20167;-65
2022/03/09 12:55:36;;;;;;;6.50;4.10;;;;;;;;;;5095872;28;20170;-64
2022/03/09 12:58:03;;;;;;;8.18;4.93;;;;;;;;;;5095844;28;20603;-65
2022/03/09 13:00:30;;;;;;;6.95;4.10;;;;;;;;;;5096988;28;20245;-65
2022/03/09 13:03:00;;;;;;;8.07;4.68;;;;;;;;;;5096469;28;20181;-65
2022/03/09 13:05:27;;;;;;;6.40;4.75;;;;;;;;;;5096180;28;20576;-65
2022/03/09 13:08:00;;;;;;;7.47;4.85;;;;;;;;;;5096432;28;20182;-65
2022/03/09 13:10:27;;;;;;;5.90;4.38;;;;;;;;;;5095852;28;20222;-65
2022/03/09 13:12:53;;;;;;;6.57;4.68;;;;;;;;;;5095625;28;20168;-65
2022/03/09 13:15:19;;;;;;;7.47;4.30;;;;;;;;;;5095725;28;20159;-65
2022/03/09 13:17:46;;;;;;;6.85;3.80;;;;;;;;;;5095684;28;20240;-65
2022/03/09 13:20:13;;;;;;;7.18;4.70;;;;;;;;;;5095422;28;20569;-65
2022/03/09 13:22:43;;;;;;;8.63;5.00;;;;;;;;;;5095303;28;20190;-65
2022/03/09 13:25:09;;;;;;;7.82;4.82;;;;;;;;;;5095838;28;20168;-65
2022/03/09 13:27:35;;;;;;;7.32;5.20;;;;;;;;;;5095426;28;20179;-65
2022/03/09 13:30:31;;;;;;;7.78;5.25;;;;;;;;;;5095367;28;20199;-65
2022/03/09 13:33:08;;;;;;;7.88;5.60;;;;;;;;;;5090576;28;20603;-65
2022/03/09 13:35:46;;;;;;;8.57;5.35;;;;;;;;;;5095110;28;20156;-65
2022/03/09 13:38:11;;;;;;;9.18;6.15;;;;;;;;;;5094936;28;20148;-65
2022/03/09 13:40:44;;;;;;;7.55;5.00;;;;;;;;;;5095029;28;20182;-65
2022/03/09 13:43:10;;;;;;;7.43;5.40;;;;;;;;;;5094264;28;20156;-65
2022/03/09 13:45:40;;;;;;;7.00;4.40;;;;;;;;;;5095000;28;20171;-65
2022/03/09 13:48:07;;;;;;;7.68;4.93;;;;;;;;;;5095164;28;20172;-65
2022/03/09 13:50:38;;;;;;;8.20;4.15;;;;;;;;;;5095160;28;20286;-65
2022/03/09 13:53:10;;;;;;;7.13;4.00;;;;;;;;;;5095386;28;20276;-65
2022/03/09 13:55:39;;;;;;;9.05;4.30;;;;;;;;;;5094974;28;20499;-65
2022/03/09 13:58:06;;;;;;;8.00;5.53;;;;;;;;;;5094869;28;20252;-66
2022/03/09 14:00:36;;;;;;;7.25;4.63;;;;;;;;;;5094895;28;20183;-65
2022/03/09 14:03:17;;;;;;;8.13;4.95;;;;;;;;;;5094967;28;20171;-65
2022/03/09 14:05:44;;;;;;;7.47;4.97;;;;;;;;;;5094757;28;20163;-65
2022/03/09 14:08:22;;;;;;;8.18;4.78;;;;;;;;;;5094509;28;20190;-65
2022/03/09 14:10:51;;;;;;;8.27;4.03;;;;;;;;;;5094970;28;20184;-65
2022/03/09 14:13:17;;;;;;;6.55;4.07;;;;;;;;;;5094574;28;20519;-64
2022/03/09 14:15:43;;;;;;;7.20;4.40;;;;;;;;;;5094820;28;20170;-64
2022/03/09 14:18:10;;;;;;;9.30;5.07;;;;;;;;;;5094694;28;20178;-64
2022/03/09 14:20:36;;;;;;;7.95;5.07;;;;;;;;;;5094421;28;20186;-64
2022/03/09 14:23:04;;;;;;;9.77;5.43;;;;;;;;;;5094712;28;20171;-65
2022/03/09 14:25:30;;;;;;;8.00;5.47;;;;;;;;;;5094430;28;20254;-65
2022/03/09 14:27:58;;;;;;;7.53;5.13;;;;;;;;;;5094611;28;20289;-64
2022/03/09 14:30:24;;;;;;;9.07;5.65;;;;;;;;;;5094310;28;20282;-64
2022/03/09 14:32:50;;;;;;;9.07;5.80;;;;;;;;;;5094448;28;20195;-65
2022/03/09 14:35:16;;;;;;;8.75;5.72;;;;;;;;;;5094291;28;20610;-65
2022/03/09 14:37:52;;;;;;;8.65;5.28;;;;;;;;;;5094356;28;20163;-65
2022/03/09 14:40:18;;;;;;;7.72;5.28;;;;;;;;;;5094111;28;20171;-65
2022/03/09 14:42:44;;;;;;;9.38;6.03;;;;;;;;;;5094463;28;20175;-64